sensor_id;sensor_type;location;lat;lon;timestamp;temperature;humidity
21666;DHT22;10994;45.486;9.190;2022-11-04T00:01:29;15.50;99.90
21666;DHT22;10994;45.486;9.190;2022-11-04T00:03:55;15.50;99.90
21666;DHT22;10994;45.486;9.190;2022-11-04T00:06:21;15.40;99.90
21666;DHT22;10994;45.486;9.190;2022-11-04T00:08:55;15.30;99.90
21666;DHT22;10994;45.486;9.190;2022-11-04T00:11:23;15.30;99.90
21666;DHT22;10994;45.486;9.190;2022-11-04T00:14:08;15.30;99.90
21666;DHT22;10994;45.486;9.190;2022-11-04T00:16:34;15.40;99.90
21666;DHT22;10994;45.486;9.190;2022-11-04T00:19:19;15.30;99.90
21666;DHT22;10994;45.486;9.190;2022-11-04T00:21:45;15.30;99.90
21666;DHT22;10994;45.486;9.190;2022-11-04T00:24:29;15.40;99.90
21666;DHT22;10994;45.486;9.190;2022-11-04T00:27:10;15.30;99.90
21666;DHT22;10994;45.486;9.190;2022-11-04T00:29:55;15.40;99.90
21666;DHT22;10994;45.486;9.190;2022-11-04T00:35:07;15.10;99.90
21666;DHT22;10994;45.486;9.190;2022-11-04T00:37:36;15.10;99.90
21666;DHT22;10994;45.486;9.190;2022-11-04T00:40:05;15.10;99.90
21666;DHT22;10994;45.486;9.190;2022-11-04T00:42:31;15.20;99.90
21666;DHT22;10994;45.486;9.190;2022-11-04T00:44:57;15.10;99.90
21666;DHT22;10994;45.486;9.190;2022-11-04T00:47:22;15.00;99.90
21666;DHT22;10994;45.486;9.190;2022-11-04T00:49:48;15.10;99.90
21666;DHT22;10994;45.486;9.190;2022-11-04T00:52:14;15.10;99.90
21666;DHT22;10994;45.486;9.190;2022-11-04T00:54:43;15.10;99.90
21666;DHT22;10994;45.486;9.190;2022-11-04T00:57:10;15.00;99.90
21666;DHT22;10994;45.486;9.190;2022-11-04T00:59:36;15.00;99.90
21666;DHT22;10994;45.486;9.190;2022-11-04T01:02:08;15.00;99.90
21666;DHT22;10994;45.486;9.190;2022-11-04T01:04:35;15.10;99.90
21666;DHT22;10994;45.486;9.190;2022-11-04T01:07:01;15.10;99.90
21666;DHT22;10994;45.486;9.190;2022-11-04T01:09:28;15.20;99.90
21666;DHT22;10994;45.486;9.190;2022-11-04T01:16:48;15.10;99.90
21666;DHT22;10994;45.486;9.190;2022-11-04T01:19:15;15.40;99.90
21666;DHT22;10994;45.486;9.190;2022-11-04T01:21:41;15.50;99.90
21666;DHT22;10994;45.486;9.190;2022-11-04T01:24:07;15.30;99.90
21666;DHT22;10994;45.486;9.190;2022-11-04T01:26:33;15.20;99.90
21666;DHT22;10994;45.486;9.190;2022-11-04T01:28:59;15.10;99.90
21666;DHT22;10994;45.486;9.190;2022-11-04T01:31:29;15.20;99.90
21666;DHT22;10994;45.486;9.190;2022-11-04T01:33:57;15.20;99.90
21666;DHT22;10994;45.486;9.190;2022-11-04T01:36:23;15.20;99.90
21666;DHT22;10994;45.486;9.190;2022-11-04T01:38:50;15.20;99.90
21666;DHT22;10994;45.486;9.190;2022-11-04T01:41:20;15.30;99.90
21666;DHT22;10994;45.486;9.190;2022-11-04T01:46:25;15.30;99.90
21666;DHT22;10994;45.486;9.190;2022-11-04T02:36:41;15.30;99.90
21666;DHT22;10994;45.486;9.190;2022-11-04T02:39:36;15.00;99.90
21666;DHT22;10994;45.486;9.190;2022-11-04T02:42:22;14.90;99.90
21666;DHT22;10994;45.486;9.190;2022-11-04T02:44:58;14.70;99.90
21666;DHT22;10994;45.486;9.190;2022-11-04T02:47:29;14.70;99.90
21666;DHT22;10994;45.486;9.190;2022-11-04T02:50:04;14.60;99.90
21666;DHT22;10994;45.486;9.190;2022-11-04T02:52:50;14.60;99.90
21666;DHT22;10994;45.486;9.190;2022-11-04T02:55:29;14.50;99.90
21666;DHT22;10994;45.486;9.190;2022-11-04T02:57:58;14.50;99.90
21666;DHT22;10994;45.486;9.190;2022-11-04T03:00:24;14.60;99.90
21666;DHT22;10994;45.486;9.190;2022-11-04T03:05:22;14.50;99.90
21666;DHT22;10994;45.486;9.190;2022-11-04T03:07:50;14.60;99.90
21666;DHT22;10994;45.486;9.190;2022-11-04T03:20:30;14.60;99.90
21666;DHT22;10994;45.486;9.190;2022-11-04T03:22:56;14.10;99.90
21666;DHT22;10994;45.486;9.190;2022-11-04T03:25:34;14.20;99.90
21666;DHT22;10994;45.486;9.190;2022-11-04T03:28:13;14.30;99.90
21666;DHT22;10994;45.486;9.190;2022-11-04T03:30:45;14.40;99.90
21666;DHT22;10994;45.486;9.190;2022-11-04T03:36:00;14.00;99.90
21666;DHT22;10994;45.486;9.190;2022-11-04T03:38:28;14.00;99.90
21666;DHT22;10994;45.486;9.190;2022-11-04T03:40:53;14.00;99.90
21666;DHT22;10994;45.486;9.190;2022-11-04T03:43:25;14.00;99.90
21666;DHT22;10994;45.486;9.190;2022-11-04T03:45:53;13.90;99.90
21666;DHT22;10994;45.486;9.190;2022-11-04T03:48:19;13.90;99.90
21666;DHT22;10994;45.486;9.190;2022-11-04T03:50:47;13.80;99.90
21666;DHT22;10994;45.486;9.190;2022-11-04T04:06:05;13.70;99.90
21666;DHT22;10994;45.486;9.190;2022-11-04T04:11:44;13.40;99.90
21666;DHT22;10994;45.486;9.190;2022-11-04T04:17:06;13.20;99.90
21666;DHT22;10994;45.486;9.190;2022-11-04T04:19:34;13.20;99.90
21666;DHT22;10994;45.486;9.190;2022-11-04T04:22:04;13.20;99.90
21666;DHT22;10994;45.486;9.190;2022-11-04T04:24:35;13.00;99.90
21666;DHT22;10994;45.486;9.190;2022-11-04T04:27:21;13.10;99.90
21666;DHT22;10994;45.486;9.190;2022-11-04T04:30:04;13.00;99.90
21666;DHT22;10994;45.486;9.190;2022-11-04T04:32:34;13.10;99.90
21666;DHT22;10994;45.486;9.190;2022-11-04T04:35:01;13.10;99.90
21666;DHT22;10994;45.486;9.190;2022-11-04T04:37:45;13.10;99.90
21666;DHT22;10994;45.486;9.190;2022-11-04T04:40:15;13.00;99.90
21666;DHT22;10994;45.486;9.190;2022-11-04T04:43:02;12.90;99.90
21666;DHT22;10994;45.486;9.190;2022-11-04T04:45:52;13.00;99.90
21666;DHT22;10994;45.486;9.190;2022-11-04T04:48:18;13.00;99.90
21666;DHT22;10994;45.486;9.190;2022-11-04T04:50:47;12.80;99.90
21666;DHT22;10994;45.486;9.190;2022-11-04T04:53:14;12.80;99.90
21666;DHT22;10994;45.486;9.190;2022-11-04T04:55:40;12.90;99.90
21666;DHT22;10994;45.486;9.190;2022-11-04T04:58:05;12.90;99.90
21666;DHT22;10994;45.486;9.190;2022-11-04T05:00:31;12.70;99.90
21666;DHT22;10994;45.486;9.190;2022-11-04T05:02:58;12.70;99.90
21666;DHT22;10994;45.486;9.190;2022-11-04T05:05:24;12.80;99.90
21666;DHT22;10994;45.486;9.190;2022-11-04T05:07:49;12.80;99.90
21666;DHT22;10994;45.486;9.190;2022-11-04T05:10:16;12.80;99.90
21666;DHT22;10994;45.486;9.190;2022-11-04T05:12:43;12.80;99.90
21666;DHT22;10994;45.486;9.190;2022-11-04T05:15:28;12.80;99.90
21666;DHT22;10994;45.486;9.190;2022-11-04T05:17:59;12.80;99.90
21666;DHT22;10994;45.486;9.190;2022-11-04T05:20:26;12.80;99.90
21666;DHT22;10994;45.486;9.190;2022-11-04T05:22:53;12.80;99.90
21666;DHT22;10994;45.486;9.190;2022-11-04T05:25:19;12.80;99.90
21666;DHT22;10994;45.486;9.190;2022-11-04T05:27:45;12.70;99.90
21666;DHT22;10994;45.486;9.190;2022-11-04T05:30:11;12.70;99.90
21666;DHT22;10994;45.486;9.190;2022-11-04T05:32:36;12.90;99.90
21666;DHT22;10994;45.486;9.190;2022-11-04T05:35:02;13.10;99.90
21666;DHT22;10994;45.486;9.190;2022-11-04T05:37:28;13.00;99.90
21666;DHT22;10994;45.486;9.190;2022-11-04T05:39:54;13.00;99.90
21666;DHT22;10994;45.486;9.190;2022-11-04T05:42:19;13.00;99.90
21666;DHT22;10994;45.486;9.190;2022-11-04T05:44:45;13.00;99.90
21666;DHT22;10994;45.486;9.190;2022-11-04T05:47:11;13.00;99.90
21666;DHT22;10994;45.486;9.190;2022-11-04T05:49:36;13.00;99.90
21666;DHT22;10994;45.486;9.190;2022-11-04T05:52:02;13.00;99.90
21666;DHT22;10994;45.486;9.190;2022-11-04T05:54:28;12.80;99.90
21666;DHT22;10994;45.486;9.190;2022-11-04T05:56:53;12.80;99.90
21666;DHT22;10994;45.486;9.190;2022-11-04T05:59:19;12.80;99.90
21666;DHT22;10994;45.486;9.190;2022-11-04T06:01:45;12.90;99.90
21666;DHT22;10994;45.486;9.190;2022-11-04T06:04:16;12.80;99.90
21666;DHT22;10994;45.486;9.190;2022-11-04T06:06:41;12.80;99.90
21666;DHT22;10994;45.486;9.190;2022-11-04T06:09:08;12.90;99.90
21666;DHT22;10994;45.486;9.190;2022-11-04T06:11:35;12.80;99.90
21666;DHT22;10994;45.486;9.190;2022-11-04T06:14:01;12.80;99.90
21666;DHT22;10994;45.486;9.190;2022-11-04T06:16:27;12.90;99.90
21666;DHT22;10994;45.486;9.190;2022-11-04T06:18:53;12.80;99.90
21666;DHT22;10994;45.486;9.190;2022-11-04T06:21:21;12.90;99.90
21666;DHT22;10994;45.486;9.190;2022-11-04T06:23:49;13.00;99.90
21666;DHT22;10994;45.486;9.190;2022-11-04T06:26:15;13.00;99.90
21666;DHT22;10994;45.486;9.190;2022-11-04T06:28:41;13.10;99.90
21666;DHT22;10994;45.486;9.190;2022-11-04T06:31:08;12.90;99.90
21666;DHT22;10994;45.486;9.190;2022-11-04T06:33:34;13.00;99.90
21666;DHT22;10994;45.486;9.190;2022-11-04T06:36:02;13.00;99.90
21666;DHT22;10994;45.486;9.190;2022-11-04T06:38:32;13.20;99.90
21666;DHT22;10994;45.486;9.190;2022-11-04T06:40:58;13.20;99.90
21666;DHT22;10994;45.486;9.190;2022-11-04T06:43:24;13.20;99.90
21666;DHT22;10994;45.486;9.190;2022-11-04T06:45:58;13.30;99.90
21666;DHT22;10994;45.486;9.190;2022-11-04T06:48:25;13.30;99.90
21666;DHT22;10994;45.486;9.190;2022-11-04T06:50:51;13.30;99.90
21666;DHT22;10994;45.486;9.190;2022-11-04T06:53:16;13.30;99.90
21666;DHT22;10994;45.486;9.190;2022-11-04T06:55:42;13.20;99.90
21666;DHT22;10994;45.486;9.190;2022-11-04T06:58:08;13.40;99.90
21666;DHT22;10994;45.486;9.190;2022-11-04T07:00:34;13.40;99.90
21666;DHT22;10994;45.486;9.190;2022-11-04T07:02:59;13.40;99.90
21666;DHT22;10994;45.486;9.190;2022-11-04T07:05:25;13.30;99.90
21666;DHT22;10994;45.486;9.190;2022-11-04T07:07:51;13.30;99.90
21666;DHT22;10994;45.486;9.190;2022-11-04T07:10:16;13.20;99.90
21666;DHT22;10994;45.486;9.190;2022-11-04T07:12:43;13.30;99.90
21666;DHT22;10994;45.486;9.190;2022-11-04T07:15:09;13.20;99.90
21666;DHT22;10994;45.486;9.190;2022-11-04T07:17:35;13.20;99.90
21666;DHT22;10994;45.486;9.190;2022-11-04T07:20:00;13.20;99.90
21666;DHT22;10994;45.486;9.190;2022-11-04T07:22:26;13.20;99.90
21666;DHT22;10994;45.486;9.190;2022-11-04T07:24:52;13.30;99.90
21666;DHT22;10994;45.486;9.190;2022-11-04T07:27:17;13.20;99.90
21666;DHT22;10994;45.486;9.190;2022-11-04T07:29:43;13.20;99.90
21666;DHT22;10994;45.486;9.190;2022-11-04T07:32:09;13.30;99.90
21666;DHT22;10994;45.486;9.190;2022-11-04T07:34:34;13.30;99.90
21666;DHT22;10994;45.486;9.190;2022-11-04T07:37:00;13.40;99.90
21666;DHT22;10994;45.486;9.190;2022-11-04T07:39:26;13.40;99.90
21666;DHT22;10994;45.486;9.190;2022-11-04T07:41:51;13.60;99.90
21666;DHT22;10994;45.486;9.190;2022-11-04T07:44:17;13.70;99.90
21666;DHT22;10994;45.486;9.190;2022-11-04T07:46:43;13.80;99.90
21666;DHT22;10994;45.486;9.190;2022-11-04T07:49:08;13.90;99.90
21666;DHT22;10994;45.486;9.190;2022-11-04T07:51:34;14.00;99.90
21666;DHT22;10994;45.486;9.190;2022-11-04T07:54:00;14.00;99.90
21666;DHT22;10994;45.486;9.190;2022-11-04T07:56:26;14.00;99.90
21666;DHT22;10994;45.486;9.190;2022-11-04T07:58:52;14.00;99.90
21666;DHT22;10994;45.486;9.190;2022-11-04T08:01:20;14.10;99.90
21666;DHT22;10994;45.486;9.190;2022-11-04T08:03:48;14.10;99.90
21666;DHT22;10994;45.486;9.190;2022-11-04T08:06:16;14.10;99.90
21666;DHT22;10994;45.486;9.190;2022-11-04T08:08:42;14.10;99.90
21666;DHT22;10994;45.486;9.190;2022-11-04T08:11:13;14.00;99.90
21666;DHT22;10994;45.486;9.190;2022-11-04T08:13:40;14.10;99.90
21666;DHT22;10994;45.486;9.190;2022-11-04T08:16:10;14.10;99.90
21666;DHT22;10994;45.486;9.190;2022-11-04T08:18:38;14.20;99.90
21666;DHT22;10994;45.486;9.190;2022-11-04T08:21:04;14.20;99.90
21666;DHT22;10994;45.486;9.190;2022-11-04T08:23:30;14.30;99.90
21666;DHT22;10994;45.486;9.190;2022-11-04T08:25:57;14.30;99.90
21666;DHT22;10994;45.486;9.190;2022-11-04T08:28:23;14.40;99.90
21666;DHT22;10994;45.486;9.190;2022-11-04T08:31:04;14.40;99.90
21666;DHT22;10994;45.486;9.190;2022-11-04T08:33:32;14.40;99.90
21666;DHT22;10994;45.486;9.190;2022-11-04T08:36:01;14.80;99.90
21666;DHT22;10994;45.486;9.190;2022-11-04T08:38:27;16.00;99.90
21666;DHT22;10994;45.486;9.190;2022-11-04T08:43:23;16.60;99.90
21666;DHT22;10994;45.486;9.190;2022-11-04T08:45:51;17.70;99.90
21666;DHT22;10994;45.486;9.190;2022-11-04T08:48:17;17.30;99.90
21666;DHT22;10994;45.486;9.190;2022-11-04T08:50:43;16.50;99.90
21666;DHT22;10994;45.486;9.190;2022-11-04T08:53:12;16.00;99.90
21666;DHT22;10994;45.486;9.190;2022-11-04T08:55:38;15.60;99.90
21666;DHT22;10994;45.486;9.190;2022-11-04T08:58:03;15.40;99.90
21666;DHT22;10994;45.486;9.190;2022-11-04T09:00:29;15.40;99.90
21666;DHT22;10994;45.486;9.190;2022-11-04T09:02:58;15.40;99.90
21666;DHT22;10994;45.486;9.190;2022-11-04T09:05:24;15.40;99.90
21666;DHT22;10994;45.486;9.190;2022-11-04T09:07:50;15.50;99.90
21666;DHT22;10994;45.486;9.190;2022-11-04T09:10:16;15.40;99.90
21666;DHT22;10994;45.486;9.190;2022-11-04T09:12:42;15.40;99.90
21666;DHT22;10994;45.486;9.190;2022-11-04T09:15:09;15.30;99.90
21666;DHT22;10994;45.486;9.190;2022-11-04T09:17:34;15.30;99.90
21666;DHT22;10994;45.486;9.190;2022-11-04T09:20:00;15.30;99.90
21666;DHT22;10994;45.486;9.190;2022-11-04T09:22:26;15.20;99.90
21666;DHT22;10994;45.486;9.190;2022-11-04T09:24:52;15.20;99.90
21666;DHT22;10994;45.486;9.190;2022-11-04T09:27:18;15.40;99.90
21666;DHT22;10994;45.486;9.190;2022-11-04T09:29:44;15.40;99.90
21666;DHT22;10994;45.486;9.190;2022-11-04T09:32:10;15.40;99.90
21666;DHT22;10994;45.486;9.190;2022-11-04T09:34:36;15.40;99.90
21666;DHT22;10994;45.486;9.190;2022-11-04T09:37:02;15.40;99.90
21666;DHT22;10994;45.486;9.190;2022-11-04T09:39:28;15.50;99.90
21666;DHT22;10994;45.486;9.190;2022-11-04T09:42:06;15.50;99.90
21666;DHT22;10994;45.486;9.190;2022-11-04T09:47:04;15.50;99.90
21666;DHT22;10994;45.486;9.190;2022-11-04T09:49:36;15.50;99.90
21666;DHT22;10994;45.486;9.190;2022-11-04T09:52:10;15.50;99.90
21666;DHT22;10994;45.486;9.190;2022-11-04T09:54:47;15.30;99.90
21666;DHT22;10994;45.486;9.190;2022-11-04T09:57:16;15.30;99.90
21666;DHT22;10994;45.486;9.190;2022-11-04T09:59:42;15.40;99.90
21666;DHT22;10994;45.486;9.190;2022-11-04T10:02:43;15.40;99.90
21666;DHT22;10994;45.486;9.190;2022-11-04T10:08:49;15.30;99.90
21666;DHT22;10994;45.486;9.190;2022-11-04T10:11:36;15.40;99.90
21666;DHT22;10994;45.486;9.190;2022-11-04T10:27:15;15.50;99.90
21666;DHT22;10994;45.486;9.190;2022-11-04T10:29:49;15.60;99.90
21666;DHT22;10994;45.486;9.190;2022-11-04T10:32:34;15.60;99.90
21666;DHT22;10994;45.486;9.190;2022-11-04T10:37:35;15.80;99.90
21666;DHT22;10994;45.486;9.190;2022-11-04T10:40:26;15.80;99.90
21666;DHT22;10994;45.486;9.190;2022-11-04T10:42:55;15.80;99.90
21666;DHT22;10994;45.486;9.190;2022-11-04T10:45:32;15.90;99.90
21666;DHT22;10994;45.486;9.190;2022-11-04T10:48:10;15.90;99.90
21666;DHT22;10994;45.486;9.190;2022-11-04T10:50:58;16.00;99.90
21666;DHT22;10994;45.486;9.190;2022-11-04T10:53:26;15.90;99.90
21666;DHT22;10994;45.486;9.190;2022-11-04T10:58:30;15.80;99.90
21666;DHT22;10994;45.486;9.190;2022-11-04T11:00:57;15.90;99.90
21666;DHT22;10994;45.486;9.190;2022-11-04T11:03:33;16.00;99.90
21666;DHT22;10994;45.486;9.190;2022-11-04T11:08:57;16.10;99.90
21666;DHT22;10994;45.486;9.190;2022-11-04T11:11:38;16.10;99.90
21666;DHT22;10994;45.486;9.190;2022-11-04T11:14:04;16.10;99.90
21666;DHT22;10994;45.486;9.190;2022-11-04T11:16:30;16.10;99.90
21666;DHT22;10994;45.486;9.190;2022-11-04T11:21:45;16.20;99.90
21666;DHT22;10994;45.486;9.190;2022-11-04T11:24:17;16.30;99.90
21666;DHT22;10994;45.486;9.190;2022-11-04T11:26:44;16.30;99.90
21666;DHT22;10994;45.486;9.190;2022-11-04T11:29:29;16.40;99.90
21666;DHT22;10994;45.486;9.190;2022-11-04T11:31:57;16.40;99.90
21666;DHT22;10994;45.486;9.190;2022-11-04T11:36:51;16.30;99.90
21666;DHT22;10994;45.486;9.190;2022-11-04T11:39:20;16.40;99.90
21666;DHT22;10994;45.486;9.190;2022-11-04T11:41:53;16.50;99.90
21666;DHT22;10994;45.486;9.190;2022-11-04T11:47:04;16.60;99.90
21666;DHT22;10994;45.486;9.190;2022-11-04T12:07:54;16.70;99.90
21666;DHT22;10994;45.486;9.190;2022-11-04T12:10:40;23.00;99.90
21666;DHT22;10994;45.486;9.190;2022-11-04T12:13:25;25.30;99.90
21666;DHT22;10994;45.486;9.190;2022-11-04T12:18:56;27.20;99.90
21666;DHT22;10994;45.486;9.190;2022-11-04T12:21:25;30.30;97.70
21666;DHT22;10994;45.486;9.190;2022-11-04T12:24:15;26.20;96.50
